Центральная Азия

ЗЦ Центральной Азии - "Азия-Центр" включает в себя пять республик: Казахстан, Кыргызстан, Таджикистан, Туркменистан и Узбекистан.

Зональный Центр обслуживает все аэропорты Центральной Азии по принципу "Top-down"

ЗЦ включает в себя РПИ Актобе, Алматы, Астаны, Ашхабада, Бишкека, Дашогуза, Душанбе, Оша, Самарканда, Ташкента, Туркменабата, Туркменбаши и Шымкента

В сети ВАТСИМ обслуживание воздушного движения над территорией ЗЦ Центральной Азии осуществляет позиция RU-CEN_FSS, позывной "Азия-Центр", частота 132.850.

Лого Центральная Азия
Руководство

Evgeny Vygornitsky

Куратор
FSS региона
Обозначение
RU-CEN_FSS
Позывной
Азия-Центр
Частота
132.850
Примечание
Top-down
Инструкторы региона
Alexandr Sokolov * (Controller)
Dmitriy Bannov (Instructor)
Evgeny Vygornitsky (Supervisor)
Sergey Balandin (Senior Instructor)
Включает в себя

РПИ Актобе
РПИ Алматы
РПИ Астана
РПИ Ашхабад
РПИ Бишкек
РПИ Дашогуз
РПИ Душанбе
РПИ Ош
РПИ Самарканд
РПИ Ташкент
РПИ Туркменабат
РПИ Туркменбаши
РПИ Шымкент

Диспетчеры региона

Диспетчер Рейтинг Допуски *
Alexandr Sokolov Controller UAAA_CTR , UACN_CTR
Anatoly Bajenov Senior Student UTTR_CTR  *
Anatoly Zhilkin Controller UACN_CTR
Dmitriy Bannov Instructor UAAA_CTR , UACN_CTR
Evgeniy Dedyaev Senior Student UTTR_CTR  *
Khurshidjon Ismoilov Senior Student UTTR_CTR  *
Vitaliy Alekseyev Controller UTSD_CTR , UTTR_CTR
Alikhan Aidarbek Student UAAA_TWR, UACC_TWR
Alikhan Xansky Student UACC_GND
Arman Maxatov Student 2 UTTT_TWR
Artem Kuzmenko Student 2 UAAA_TWR, UACC_TWR
begench atayev Unknown UTAA_GND
Ilia Vasilev Student UACC_GND
Ilya Potapov Student UAAA_GND, UACC_TWR*, UACC_GND
Kirill Ardatov Senior Student UACC_APP
Maxim Nazyrov Student 2 UAAA_TWR, UACC_TWR, UACC_R_APP*
Mikhail Duzenko Student UACC_GND
Rustem Bolatov Student UACC_GND
Timofey Abramchuck Senior Student UTTT_GND
Viktor Ivanov Instructor UACC_APP

Аэропорты региона

ICAO Город Название Погода
UAAA Алматы Алматы UAAA 232300Z 34003MPS 9999 BKN006 OVC026 M07/M09 Q1027 NOSIG RMK QBB200
UACC Астана Астана UACC 232300Z VRB01MPS 6000 SCT011 M27/M30 Q1033 NOSIG RMK QFE743/0991
UCFM Бишкек Манас UCFM 232300Z 24001MPS 6000 -SN BKN016 M06/M07 Q1026 NOSIG
UAKK Караганда Караганда UAKK 232300Z 00000MPS 8000 SCT025 M27/M31 Q1029 NOSIG RMK QFE725/0966
UTTT Ташкент Ташкент UTTT 232300Z 22006KT 1400 R08L/P2000D -SHSN BR FEW003CB 01/M00 Q1026 R08L/29//50 NOSIG RMK BASE300
UATT Актобе Актобе UATT 232300Z 00000MPS CAVOK M28/M31 Q1040 NOSIG RMK QFE760/1013
UATG Атырау Атырау UATG 232300Z 06004MPS CAVOK M11/M14 Q1039 NOSIG RMK QFE781/1042
UTAA Ашхабад Ашхабад UTAA 232300Z 08004KT 9999 OVC040 04/01 Q1026 R88/70D NOSIG
UTSB Бухара Бухара UTSB 232300Z 36010KT 9999 FEW006 M01/M01 Q1026 R01/CLRD70 NOSIG RMK BASE660
UTAT Дашогуз Дашогуз UTAT 232300Z 04006KT CAVOK M07/M14 Q1031 R08/CLRD70 NOSIG
UTDD Душанбе Душанбе UTDD 232300Z 00000MPS 7000 BKN092 02/M02 Q1024 R09/D NOSIG RMK QFE699/0932
UAKD Жезказган Жезказган
UACK Кокшетау Кокшетау
UAUU Костанай Костанай UAUU 232300Z 18002MPS CAVOK M29/M31 Q1039 NOSIG RMK QFE763/1018
UTAM Мары Мары UTAM 232300Z 02004KT 6000 SCT230 04/01 Q1027 R88/CLRD70 NOSIG
UCFO Ош Ош UCFO 232300Z 00000MPS 4700 2000E FU FEW050 01/M05 Q1023 NOSIG
UASP Павлодар Павлодар UASP 232300Z 33003MPS CAVOK M23/M26 Q1033 NOSIG RMK QFE764/1019
UACP Петропавловск Петропавловск
UTSS Самарканд Самарканд UTSS 232300Z 31002KT 3500 BR SCT065CB 01/M00 Q1024 R09/70D NOSIG
UTST Термез Термез UTST 232300Z 00000KT 6000 NSC 03/00 Q1024 R25/CLRD70 NOSIG
UTAV Туркменабад Туркменабат UTAV 232300Z VRB02KT 9999 FEW033 BKN100 02/01 Q1027 R31/CLRD70 NOSIG
UTAK Туркменбаши Туркменбаши UTAK 232300Z 06006KT 9999 -RA SCT019 OVC100 03/01 Q1028 R16R/29//50 NOSIG
UARR Уральск Уральск UARR 232300Z 36002MPS CAVOK M24/M27 Q1043 NOSIG RMK QFE779/1038
UTNU Ургенч Ургенч UTNU 232300Z 04012KT CAVOK M06/M15 Q1031 R31/CLRD70 NOSIG
UTDL Худжанд Худжанд UTDL 232300Z 24005MPS 0500 R26/1400D FG OVC002 01/01 Q1026 R26/CLRD70 NOSIG RMK QBB060 QFE731/0975
UAII Шымкент Шымкент UAII 232300Z 33002MPS 1400 R10/P2000 SHSN SCT009 OVC023CB M04/M05 Q1026 NOSIG RMK QFE734/0979
UTFA Андижан Андижан
UCFL Иссык-Куль Иссык-Куль UCFL 232300Z VRB01MPS 9999 SCT030CB M04/M13 Q1017
UCFP Каракол Каракол
UTSK Карши Карши-Ханабад UTSK 232300Z 35008KT 9999 FEW050CB 04/01 Q1025 R16/CLRD70
UTSA Навои Навои UTSA 232300Z 31004KT 9999 NSC M01/M02 Q1026 R25/CLRD70 NOSIG
UTFN Наманган Наманган UTFN 232300Z 34006KT 5000 BR SCT048 03/00 Q1025 R28/CLRD70 NOSIG
UTNN Нукус Нукус UTNN 232300Z 35004KT CAVOK M11/M15 Q1033 R33/CLRD60 NOSIG
UTFF Фергана Фергана UTFF 232300Z 22004KT 4400 BR NSC 02/M01 Q1024 R18/CLRD70